Time;durP1;ratioP1;P1;durP2;ratioP2;P2;SDS_P1;SDS_P2;PMS_P1;PMS_P2;Temp;Humidity;BMP_temperature;BMP_pressure;BME280_temperature;BME280_humidity;BME280_pressure;Samples;Min_cycle;Max_cycle;Signal;HPM_P1;HPM_P2
2021/08/14 12:02:00;;;;;;;14.25;8.50;;;27.30;99.90;;;;;;5122552;27;20101;-87
2021/08/14 12:04:26;;;;;;;12.95;8.02;;;27.80;99.90;;;;;;5092012;28;20383;-86
2021/08/14 12:06:56;;;;;;;12.57;7.90;;;27.80;99.90;;;;;;5099848;28;20016;-85
2021/08/14 12:09:24;;;;;;;11.02;6.60;;;27.60;99.90;;;;;;5099382;28;20020;-86
2021/08/14 12:11:58;;;;;;;12.30;8.27;;;27.60;99.90;;;;;;5091673;28;20024;-85
2021/08/14 12:14:25;;;;;;;13.95;7.60;;;27.80;99.90;;;;;;5074123;28;20878;-87
2021/08/14 12:16:59;;;;;;;10.80;6.78;;;27.70;99.90;;;;;;5098780;28;20127;-85
2021/08/14 12:19:26;;;;;;;13.70;8.50;;;27.10;99.90;;;;;;5086894;28;20031;-85
2021/08/14 12:22:11;;;;;;;13.50;7.57;;;26.70;99.90;;;;;;5087069;28;20039;-85
2021/08/14 12:24:37;;;;;;;10.10;6.53;;;27.00;99.90;;;;;;5087031;28;20024;-85
2021/08/14 12:27:25;;;;;;;9.95;5.75;;;27.60;99.90;;;;;;5088035;28;20020;-86
2021/08/14 12:29:52;;;;;;;13.05;7.10;;;28.40;99.90;;;;;;5088077;28;20050;-86
2021/08/14 12:32:18;;;;;;;12.15;6.10;;;28.80;99.90;;;;;;5087893;28;20032;-87
2021/08/14 12:34:45;;;;;;;10.88;6.40;;;28.80;99.90;;;;;;5087010;28;20431;-86
2021/08/14 12:37:15;;;;;;;8.98;5.35;;;29.30;99.70;;;;;;5087848;28;20074;-84
2021/08/14 12:39:56;;;;;;;11.63;6.50;;;29.80;99.40;;;;;;5086337;28;20029;-85
2021/08/14 12:42:29;;;;;;;10.60;6.78;;;30.40;98.60;;;;;;5087618;28;20028;-87
2021/08/14 12:44:57;;;;;;;12.98;5.82;;;30.40;97.90;;;;;;5086188;28;20134;-86
2021/08/14 12:47:26;;;;;;;11.95;7.07;;;30.50;97.80;;;;;;5087842;28;20111;-86
2021/08/14 12:50:26;;;;;;;9.82;5.80;;;30.60;97.20;;;;;;5088514;28;20017;-87
2021/08/14 12:53:10;;;;;;;9.80;5.50;;;30.60;97.20;;;;;;5082706;28;20032;-88
2021/08/14 12:55:44;;;;;;;8.73;5.28;;;30.50;97.00;;;;;;5090193;28;20028;-86
2021/08/14 12:58:25;;;;;;;7.60;4.68;;;30.40;96.80;;;;;;5087991;28;20024;-88
2021/08/14 13:00:55;;;;;;;10.60;5.63;;;30.70;97.00;;;;;;5087839;28;20060;-88
2021/08/14 13:03:22;;;;;;;8.65;4.43;;;30.70;96.50;;;;;;5068209;28;20112;-88
2021/08/14 13:05:49;;;;;;;8.48;5.03;;;30.60;96.50;;;;;;5068128;28;20560;-88
2021/08/14 13:08:16;;;;;;;7.90;5.20;;;30.20;97.00;;;;;;5074981;28;20019;-88
2021/08/14 13:10:47;;;;;;;9.18;5.10;;;29.80;97.20;;;;;;5087586;28;20028;-88
2021/08/14 13:13:13;;;;;;;9.18;4.78;;;29.60;97.30;;;;;;5075358;28;20027;-88
2021/08/14 13:15:39;;;;;;;8.20;4.10;;;29.80;97.50;;;;;;5074888;28;20066;-87
2021/08/14 13:18:06;;;;;;;8.85;4.22;;;30.20;97.10;;;;;;5074090;28;20031;-88
2021/08/14 13:20:33;;;;;;;6.85;4.13;;;30.80;96.70;;;;;;5074589;28;20042;-89
2021/08/14 13:22:59;;;;;;;11.82;5.13;;;31.10;96.50;;;;;;5074523;28;20029;-89
2021/08/14 13:25:25;;;;;;;10.65;5.35;;;31.40;95.70;;;;;;5074603;28;20034;-88
2021/08/14 13:27:54;;;;;;;10.30;5.35;;;31.20;95.80;;;;;;5074634;28;20541;-89
2021/08/14 13:30:23;;;;;;;8.88;4.35;;;31.10;95.30;;;;;;5073919;28;20033;-89
2021/08/14 13:32:51;;;;;;;9.63;4.68;;;31.50;95.40;;;;;;5074277;28;20025;-88
2021/08/14 13:35:17;;;;;;;7.55;4.20;;;31.50;94.80;;;;;;5074692;28;20360;-88
2021/08/14 13:37:46;;;;;;;9.02;4.65;;;30.90;95.40;;;;;;5074541;28;20029;-87
2021/08/14 13:40:14;;;;;;;8.77;4.43;;;30.60;95.60;;;;;;5073371;28;20031;-88
2021/08/14 13:42:41;;;;;;;7.88;4.03;;;30.70;95.80;;;;;;5073860;28;20047;-89
2021/08/14 13:45:11;;;;;;;8.55;4.00;;;31.10;95.60;;;;;;5073572;28;20040;-88
2021/08/14 13:47:38;;;;;;;7.45;3.33;;;31.30;95.40;;;;;;5072452;28;20044;-88
2021/08/14 13:50:06;;;;;;;7.00;4.15;;;31.70;94.80;;;;;;5074163;28;20021;-88
2021/08/14 13:52:32;;;;;;;7.13;3.53;;;32.00;94.20;;;;;;5073364;28;20112;-88
2021/08/14 13:54:58;;;;;;;7.35;3.55;;;32.20;94.10;;;;;;5071359;28;20119;-88
2021/08/14 13:57:24;;;;;;;8.48;3.65;;;32.30;93.50;;;;;;5072923;28;20025;-88
2021/08/14 13:59:50;;;;;;;9.65;4.70;;;32.60;93.40;;;;;;5074011;28;20033;-88
2021/08/14 14:02:16;;;;;;;9.18;4.05;;;32.70;92.60;;;;;;5073249;28;20111;-89
2021/08/14 14:04:41;;;;;;;8.32;4.13;;;32.10;93.10;;;;;;5074804;28;20363;-88
2021/08/14 14:07:08;;;;;;;8.50;4.22;;;31.90;93.10;;;;;;5073306;28;20020;-89
2021/08/14 14:09:36;;;;;;;7.65;3.53;;;31.20;92.70;;;;;;5073300;28;20426;-88
2021/08/14 14:12:03;;;;;;;10.50;5.00;;;30.30;93.60;;;;;;5072004;28;20078;-88
2021/08/14 14:14:31;;;;;;;7.43;4.28;;;29.50;93.00;;;;;;5071200;28;20055;-87
2021/08/14 14:16:57;;;;;;;10.25;4.72;;;29.20;93.70;;;;;;5070773;28;20384;-88
2021/08/14 14:19:23;;;;;;;11.35;4.70;;;29.50;93.80;;;;;;5070751;28;20033;-88
2021/08/14 14:21:49;;;;;;;10.25;4.82;;;30.00;93.60;;;;;;5070591;28;20025;-87
2021/08/14 14:24:15;;;;;;;10.02;4.80;;;30.60;92.60;;;;;;5069867;28;20070;-88
2021/08/14 14:26:41;;;;;;;9.23;4.47;;;31.00;92.40;;;;;;5070897;28;20020;-88
2021/08/14 14:29:08;;;;;;;8.32;3.85;;;31.20;92.20;;;;;;5054219;28;20032;-88
2021/08/14 14:31:34;;;;;;;10.20;4.32;;;31.40;92.10;;;;;;5070545;28;20379;-88
2021/08/14 14:34:05;;;;;;;11.95;4.57;;;31.40;90.60;;;;;;5070801;28;20043;-89
2021/08/14 14:36:32;;;;;;;11.98;4.80;;;31.00;91.30;;;;;;5049698;28;20028;-88
2021/08/14 14:39:00;;;;;;;10.30;4.85;;;31.00;90.70;;;;;;5052602;28;20059;-88
2021/08/14 14:41:26;;;;;;;9.70;4.50;;;30.80;90.50;;;;;;5069066;28;20071;-87
2021/08/14 14:43:52;;;;;;;9.25;4.15;;;30.60;90.20;;;;;;5070552;28;20096;-88
2021/08/14 14:46:19;;;;;;;9.80;4.00;;;29.90;90.80;;;;;;5052886;28;20049;-87
2021/08/14 14:48:46;;;;;;;9.00;4.60;;;29.30;92.00;;;;;;5053951;28;20073;-88
2021/08/14 14:51:12;;;;;;;9.10;4.55;;;28.80;92.70;;;;;;5070367;28;20064;-88
2021/08/14 14:53:38;;;;;;;13.88;5.50;;;28.30;93.40;;;;;;5052204;28;20532;-87
2021/08/14 14:56:04;;;;;;;10.95;4.88;;;27.80;93.90;;;;;;5071683;28;20491;-87
2021/08/14 14:58:30;;;;;;;9.27;4.88;;;27.50;94.40;;;;;;5050543;28;20021;-88
2021/08/14 15:00:59;;;;;;;7.65;3.95;;;27.60;94.60;;;;;;5069970;28;20516;-87
2021/08/14 15:03:25;;;;;;;7.13;3.15;;;27.70;94.50;;;;;;5071164;28;20372;-87
2021/08/14 15:05:51;;;;;;;8.45;4.05;;;28.00;94.40;;;;;;5070178;28;20028;-88
2021/08/14 15:08:18;;;;;;;8.02;4.65;;;28.50;93.90;;;;;;5054009;28;20035;-88
2021/08/14 15:10:45;;;;;;;9.20;5.53;;;28.60;94.10;;;;;;5070375;28;20039;-87
2021/08/14 15:13:10;;;;;;;25.20;17.92;;;28.20;94.20;;;;;;5070454;28;20031;-88
2021/08/14 15:15:36;;;;;;;17.75;12.82;;;27.70;94.70;;;;;;5070781;28;20021;-87
2021/08/14 15:18:03;;;;;;;13.77;9.38;;;27.60;94.90;;;;;;5069974;28;20066;-87
2021/08/14 15:20:33;;;;;;;12.13;7.10;;;27.60;95.50;;;;;;5070666;28;20024;-88
2021/08/14 15:23:00;;;;;;;10.73;5.75;;;28.10;95.30;;;;;;5071187;28;20028;-88
2021/08/14 15:25:26;;;;;;;10.18;4.70;;;28.60;95.00;;;;;;5069583;28;20025;-88
2021/08/14 15:27:51;;;;;;;10.43;4.70;;;29.00;94.40;;;;;;5070484;28;20078;-89
2021/08/14 15:30:18;;;;;;;10.65;4.55;;;29.20;92.90;;;;;;5067543;28;20036;-86
2021/08/14 15:32:44;;;;;;;7.22;3.58;;;29.10;92.70;;;;;;5069052;28;20040;-87
2021/08/14 15:35:12;;;;;;;6.53;3.45;;;29.20;92.70;;;;;;5069356;28;20500;-87
2021/08/14 15:37:38;;;;;;;8.38;3.72;;;29.30;92.60;;;;;;5070152;28;20105;-89
2021/08/14 15:40:06;;;;;;;8.13;3.50;;;29.30;92.30;;;;;;5069891;28;20081;-87
2021/08/14 15:42:34;;;;;;;8.13;3.15;;;29.30;92.70;;;;;;5070207;28;20021;-89
2021/08/14 15:45:01;;;;;;;9.07;3.45;;;29.00;92.90;;;;;;5069766;28;20093;-85
2021/08/14 15:47:28;;;;;;;4.82;2.70;;;28.80;92.80;;;;;;5070627;28;20111;-86
2021/08/14 15:49:54;;;;;;;7.32;2.95;;;28.70;92.70;;;;;;5070444;28;20044;-87
2021/08/14 15:52:20;;;;;;;6.35;4.28;;;28.70;92.50;;;;;;5069334;28;20086;-84
2021/08/14 15:54:47;;;;;;;6.80;3.90;;;28.50;92.80;;;;;;5069904;28;20028;-86
2021/08/14 15:57:14;;;;;;;6.38;3.88;;;28.50;92.80;;;;;;5069196;28;20028;-85
2021/08/14 15:59:40;;;;;;;6.60;3.90;;;28.40;93.00;;;;;;5070634;28;20098;-86
2021/08/14 16:02:12;;;;;;;5.65;3.53;;;28.40;92.60;;;;;;5069309;28;20048;-88
2021/08/14 16:04:39;;;;;;;5.63;3.00;;;28.40;92.80;;;;;;5069828;28;20105;-89
2021/08/14 16:07:05;;;;;;;6.68;4.00;;;28.30;92.90;;;;;;5052955;28;20025;-87
2021/08/14 16:09:32;;;;;;;5.80;3.03;;;27.90;92.90;;;;;;5070491;28;20107;-86
2021/08/14 16:12:04;;;;;;;6.20;3.20;;;27.60;93.00;;;;;;5070951;28;20123;-87
2021/08/14 16:14:33;;;;;;;6.72;3.28;;;27.40;93.20;;;;;;5070068;28;20040;-87
2021/08/14 16:17:02;;;;;;;7.70;4.47;;;27.00;93.00;;;;;;5069568;28;20035;-87
2021/08/14 16:19:29;;;;;;;7.03;4.40;;;26.70;93.60;;;;;;5070524;28;20037;-87
2021/08/14 16:21:56;;;;;;;9.55;6.65;;;26.50;94.00;;;;;;5068277;28;20032;-87
2021/08/14 16:24:22;;;;;;;9.38;6.00;;;26.40;94.10;;;;;;5070968;28;20116;-87
2021/08/14 16:26:48;;;;;;;9.40;4.93;;;26.20;94.20;;;;;;5071440;28;20032;-86
2021/08/14 16:29:17;;;;;;;6.28;3.85;;;26.20;94.40;;;;;;5070701;28;20028;-86
2021/08/14 16:31:45;;;;;;;7.10;3.95;;;26.10;95.00;;;;;;5065973;28;20037;-86
2021/08/14 16:34:13;;;;;;;6.47;3.53;;;26.20;94.60;;;;;;5068359;28;20171;-89
2021/08/14 16:36:41;;;;;;;6.85;3.80;;;26.20;94.50;;;;;;5064929;28;20031;-87
2021/08/14 16:39:08;;;;;;;6.22;3.33;;;26.20;94.80;;;;;;5068304;28;20020;-87
2021/08/14 16:41:37;;;;;;;6.22;3.50;;;26.00;94.90;;;;;;5069237;28;20372;-86
2021/08/14 16:44:09;;;;;;;6.35;3.80;;;26.00;94.60;;;;;;5069782;28;20045;-86
2021/08/14 16:46:38;;;;;;;5.70;3.33;;;26.10;94.50;;;;;;5071247;28;20095;-87
2021/08/14 16:49:06;;;;;;;7.13;3.47;;;26.10;94.10;;;;;;5074562;28;20048;-86
2021/08/14 16:51:33;;;;;;;5.40;2.83;;;26.20;94.10;;;;;;5073016;28;20021;-85
2021/08/14 16:54:01;;;;;;;5.22;2.42;;;26.20;94.10;;;;;;5053133;28;20048;-85
2021/08/14 16:56:28;;;;;;;6.30;3.13;;;26.00;93.80;;;;;;5041173;28;20029;-84
2021/08/14 16:58:55;;;;;;;6.03;2.65;;;25.90;93.80;;;;;;5072710;28;20078;-85
2021/08/14 17:01:22;;;;;;;6.15;3.58;;;25.80;94.40;;;;;;5069205;28;20124;-88
2021/08/14 17:03:51;;;;;;;9.20;4.88;;;25.70;94.80;;;;;;5072262;28;20058;-87
2021/08/14 17:06:20;;;;;;;8.35;4.78;;;25.60;95.10;;;;;;5072211;28;20070;-87
2021/08/14 17:08:47;;;;;;;7.05;4.30;;;25.50;95.00;;;;;;5071994;28;20063;-87
2021/08/14 17:11:16;;;;;;;8.05;4.70;;;25.50;95.40;;;;;;5071989;28;20036;-87
2021/08/14 17:13:43;;;;;;;7.22;3.85;;;25.50;95.30;;;;;;5053216;28;20087;-89
2021/08/14 17:16:14;;;;;;;6.78;3.35;;;25.40;95.10;;;;;;5072444;28;20158;-89
2021/08/14 17:18:42;;;;;;;5.60;3.10;;;25.40;95.20;;;;;;5070074;28;20017;-87
2021/08/14 17:21:12;;;;;;;5.65;3.20;;;25.30;95.20;;;;;;5072708;28;20032;-87
2021/08/14 17:23:40;;;;;;;5.18;3.20;;;25.30;95.40;;;;;;5073030;28;20119;-89
2021/08/14 17:26:11;;;;;;;4.90;2.97;;;25.20;95.60;;;;;;5072742;28;20028;-87
2021/08/14 17:28:39;;;;;;;5.30;3.00;;;25.10;95.20;;;;;;5072554;28;20614;-88
2021/08/14 17:31:09;;;;;;;5.70;3.08;;;25.10;95.30;;;;;;5072424;28;20024;-89
2021/08/14 17:33:35;;;;;;;6.57;3.45;;;25.00;95.70;;;;;;5055397;28;20045;-88
2021/08/14 17:36:02;;;;;;;6.60;3.45;;;25.00;95.70;;;;;;5070753;28;20032;-87
2021/08/14 17:38:31;;;;;;;5.75;2.78;;;24.80;95.80;;;;;;5070953;28;20029;-86
2021/08/14 17:41:03;;;;;;;5.72;3.15;;;24.70;95.70;;;;;;5070681;28;20033;-87
2021/08/14 17:43:34;;;;;;;5.97;3.10;;;24.60;95.60;;;;;;5068402;28;20178;-86
2021/08/14 17:46:01;;;;;;;6.38;3.17;;;24.50;95.90;;;;;;5072123;28;20028;-86
2021/08/14 17:48:30;;;;;;;5.03;2.70;;;24.40;95.90;;;;;;5053357;28;20035;-86
2021/08/14 17:50:57;;;;;;;6.80;3.50;;;24.30;96.00;;;;;;5069311;28;20013;-87
2021/08/14 17:53:27;;;;;;;7.38;3.50;;;24.20;96.30;;;;;;5071436;28;20478;-86
2021/08/14 17:55:54;;;;;;;5.03;2.92;;;24.10;96.30;;;;;;5072379;28;20040;-86
2021/08/14 17:58:23;;;;;;;5.72;2.75;;;24.00;96.70;;;;;;5051617;28;20182;-86
2021/08/14 18:01:01;;;;;;;5.15;3.15;;;23.90;96.60;;;;;;5071227;28;20052;-87
2021/08/14 18:03:27;;;;;;;4.68;2.80;;;23.90;96.80;;;;;;5071249;28;20017;-86
2021/08/14 18:05:53;;;;;;;5.32;3.08;;;23.70;96.80;;;;;;5071003;28;20438;-87
2021/08/14 18:08:19;;;;;;;4.68;2.83;;;23.70;97.00;;;;;;5071503;28;20050;-87
2021/08/14 18:10:49;;;;;;;4.65;2.70;;;23.60;97.10;;;;;;5071103;28;20131;-86
2021/08/14 18:13:17;;;;;;;4.72;2.72;;;23.50;97.10;;;;;;5071333;28;20055;-86
2021/08/14 18:15:45;;;;;;;5.20;2.67;;;23.40;97.20;;;;;;5072345;28;20469;-86
2021/08/14 18:18:13;;;;;;;5.50;3.33;;;23.40;97.20;;;;;;5071375;28;20410;-87
2021/08/14 18:20:41;;;;;;;5.30;2.70;;;23.30;97.30;;;;;;5068923;28;20487;-85
2021/08/14 18:23:07;;;;;;;4.22;2.70;;;23.20;97.50;;;;;;5072480;28;20028;-86
2021/08/14 18:25:33;;;;;;;4.75;2.53;;;23.20;97.50;;;;;;5070634;28;20020;-87
2021/08/14 18:28:01;;;;;;;3.92;2.40;;;23.20;97.60;;;;;;5070726;28;20615;-85
2021/08/14 18:30:29;;;;;;;5.50;2.83;;;23.10;97.70;;;;;;5070464;28;20071;-85
2021/08/14 18:32:55;;;;;;;4.47;2.70;;;23.00;97.70;;;;;;5071372;28;20047;-88
2021/08/14 18:35:23;;;;;;;7.28;3.25;;;23.00;97.90;;;;;;5070569;28;20020;-87
2021/08/14 18:37:51;;;;;;;5.38;3.10;;;22.90;97.80;;;;;;5071106;28;20016;-86
2021/08/14 18:40:21;;;;;;;4.70;2.75;;;22.90;97.90;;;;;;5070727;28;20044;-86
2021/08/14 18:42:49;;;;;;;5.63;3.10;;;22.80;98.10;;;;;;5070931;28;20071;-86
2021/08/14 18:45:18;;;;;;;4.97;2.80;;;22.70;98.30;;;;;;5070973;28;20036;-86
2021/08/14 18:47:48;;;;;;;4.80;2.92;;;22.60;98.40;;;;;;5071964;28;20025;-85
2021/08/14 18:50:14;;;;;;;5.35;3.08;;;22.60;98.40;;;;;;5066773;28;20039;-86
2021/08/14 18:52:43;;;;;;;6.18;3.33;;;22.50;98.50;;;;;;5070652;28;20035;-86
2021/08/14 18:55:14;;;;;;;4.68;2.80;;;22.40;98.60;;;;;;5071893;28;20752;-87
2021/08/14 18:57:44;;;;;;;5.65;3.25;;;22.30;98.70;;;;;;5070904;28;20115;-86
2021/08/14 19:00:14;;;;;;;5.70;3.00;;;22.30;98.90;;;;;;5070333;28;20039;-85
2021/08/14 19:02:42;;;;;;;4.78;3.00;;;22.20;99.00;;;;;;5070162;28;20598;-85
2021/08/14 19:05:12;;;;;;;4.55;2.90;;;22.10;99.10;;;;;;5070064;28;20182;-86
2021/08/14 19:07:39;;;;;;;5.45;3.22;;;22.10;99.30;;;;;;5072101;28;20020;-87
2021/08/14 19:10:12;;;;;;;4.97;3.30;;;22.00;99.40;;;;;;5069811;28;20051;-85
2021/08/14 19:12:38;;;;;;;;;;;22.00;99.50;;;;;;5069789;28;20053;-87
2021/08/14 19:15:08;;;;;;;4.90;2.90;;;21.80;99.60;;;;;;5069903;28;19915;-86
2021/08/14 19:17:40;;;;;;;4.72;2.97;;;21.80;99.80;;;;;;5070676;28;20024;-85
2021/08/14 19:20:10;;;;;;;7.05;3.33;;;21.80;99.90;;;;;;5070927;28;20034;-86
2021/08/14 19:22:38;;;;;;;5.05;3.33;;;21.70;99.90;;;;;;5071497;28;20040;-85
2021/08/14 19:25:07;;;;;;;5.03;3.30;;;21.60;99.90;;;;;;5069689;28;20035;-85
2021/08/14 19:27:34;;;;;;;5.80;3.38;;;21.50;99.90;;;;;;5069459;28;20056;-84
2021/08/14 19:30:03;;;;;;;5.30;3.50;;;21.40;99.90;;;;;;5069933;28;20024;-85
2021/08/14 19:32:29;;;;;;;5.38;3.45;;;21.30;99.90;;;;;;5068462;28;20480;-85
2021/08/14 19:34:57;;;;;;;6.10;3.53;;;21.20;99.90;;;;;;5053302;28;20413;-84
2021/08/14 19:37:25;;;;;;;5.35;3.30;;;21.10;99.90;;;;;;5053266;28;20016;-86
2021/08/14 19:39:55;;;;;;;4.85;3.08;;;21.10;99.90;;;;;;5070112;28;20024;-85
2021/08/14 19:42:23;;;;;;;5.90;3.90;;;21.00;99.90;;;;;;5070800;28;20090;-86
2021/08/14 19:44:50;;;;;;;6.32;3.50;;;21.00;99.90;;;;;;5070220;28;20038;-87
2021/08/14 19:47:17;;;;;;;5.05;3.67;;;21.00;99.90;;;;;;5069848;28;20039;-85
2021/08/14 19:49:45;;;;;;;4.47;3.15;;;21.00;99.90;;;;;;5067515;28;20030;-86
2021/08/14 19:52:11;;;;;;;5.82;3.88;;;20.90;99.90;;;;;;5070071;28;20017;-86
2021/08/14 19:54:38;;;;;;;6.65;3.78;;;20.80;99.90;;;;;;5069267;28;20028;-86
2021/08/14 19:57:06;;;;;;;6.15;3.60;;;20.80;99.90;;;;;;5068293;28;20391;-86
2021/08/14 19:59:32;;;;;;;6.20;3.80;;;20.80;99.90;;;;;;5069546;28;20033;-85
2021/08/14 20:02:01;;;;;;;6.47;3.40;;;20.70;99.90;;;;;;5068991;28;20049;-87
2021/08/14 20:04:30;;;;;;;5.28;3.72;;;20.60;99.90;;;;;;5069509;28;20065;-85
2021/08/14 20:06:58;;;;;;;6.38;4.38;;;20.50;99.90;;;;;;5069886;28;20048;-86
2021/08/14 20:09:24;;;;;;;6.95;4.18;;;20.40;99.90;;;;;;5071424;28;20031;-85
2021/08/14 20:11:50;;;;;;;5.88;4.38;;;20.40;99.90;;;;;;5069426;28;20032;-85
2021/08/14 20:14:16;;;;;;;6.53;4.20;;;20.40;99.90;;;;;;5071072;28;20088;-85
2021/08/14 20:16:51;;;;;;;8.15;4.40;;;20.40;99.90;;;;;;5069178;28;20175;-85
2021/08/14 20:19:20;;;;;;;7.88;4.57;;;20.40;99.90;;;;;;5070594;28;20472;-85
2021/08/14 20:21:47;;;;;;;6.47;3.50;;;20.30;99.90;;;;;;5050261;28;20393;-85
2021/08/14 20:24:15;;;;;;;6.53;3.88;;;20.20;99.90;;;;;;5073014;28;20035;-86
2021/08/14 20:26:41;;;;;;;6.22;4.13;;;20.10;99.90;;;;;;5073460;28;20547;-85
2021/08/14 20:29:09;;;;;;;6.03;4.15;;;20.00;99.90;;;;;;5073646;28;20028;-85
2021/08/14 20:31:39;;;;;;;7.70;4.50;;;19.90;99.90;;;;;;5073298;28;20047;-86
2021/08/14 20:34:06;;;;;;;6.15;4.00;;;19.90;99.90;;;;;;5073824;28;20537;-87
2021/08/14 20:36:34;;;;;;;7.03;4.38;;;19.70;99.90;;;;;;5075182;28;20060;-85
2021/08/14 20:39:11;;;;;;;6.35;3.70;;;19.70;99.90;;;;;;5073876;28;20111;-86
2021/08/14 20:41:38;;;;;;;6.20;3.78;;;19.70;99.90;;;;;;5073018;28;20023;-86
2021/08/14 20:44:07;;;;;;;5.32;4.00;;;19.60;99.90;;;;;;5073167;28;20032;-85
2021/08/14 20:46:37;;;;;;;6.50;4.20;;;19.60;99.90;;;;;;5073372;28;20043;-85
2021/08/14 20:49:07;;;;;;;6.15;4.25;;;19.50;99.90;;;;;;5074272;28;20415;-85
2021/08/14 20:51:33;;;;;;;6.75;4.57;;;19.40;99.90;;;;;;5073216;28;20029;-85
2021/08/14 20:54:00;;;;;;;7.68;5.15;;;19.40;99.90;;;;;;5073144;28;20025;-85
2021/08/14 20:56:26;;;;;;;8.43;5.50;;;19.30;99.90;;;;;;5072972;28;20475;-85
2021/08/14 20:58:53;;;;;;;8.02;5.40;;;19.20;99.90;;;;;;5072504;28;20024;-86
2021/08/14 21:01:21;;;;;;;7.30;4.93;;;19.10;99.90;;;;;;5071148;28;20052;-85
2021/08/14 21:03:53;;;;;;;6.88;5.07;;;19.00;99.90;;;;;;5071443;28;20485;-86
2021/08/14 21:06:19;;;;;;;5.90;4.22;;;19.00;99.90;;;;;;5070360;28;20032;-85
2021/08/14 21:08:46;;;;;;;7.15;4.78;;;18.90;99.90;;;;;;5072954;28;20498;-85
2021/08/14 21:11:12;;;;;;;7.05;4.43;;;18.90;99.90;;;;;;5073822;28;20512;-86
2021/08/14 21:13:38;;;;;;;7.78;5.10;;;18.80;99.90;;;;;;5072844;28;20032;-86
2021/08/14 21:16:04;;;;;;;7.55;5.10;;;18.70;99.90;;;;;;5073184;28;20023;-86
2021/08/14 21:18:31;;;;;;;6.82;4.55;;;18.70;99.90;;;;;;5073026;28;20051;-85
2021/08/14 21:20:57;;;;;;;7.55;4.65;;;18.70;99.90;;;;;;5073054;28;20028;-85
2021/08/14 21:23:24;;;;;;;6.55;3.85;;;18.70;99.90;;;;;;5072718;28;20021;-87
2021/08/14 21:25:50;;;;;;;7.88;4.50;;;18.70;99.90;;;;;;5072064;28;20396;-86
2021/08/14 21:28:19;;;;;;;6.70;4.75;;;18.70;99.90;;;;;;5073029;28;20059;-86
2021/08/14 21:30:46;;;;;;;7.45;4.90;;;18.70;99.90;;;;;;5073316;28;20496;-86
2021/08/14 21:33:15;;;;;;;6.32;4.22;;;18.60;99.90;;;;;;5072261;28;20028;-86
2021/08/14 21:35:41;;;;;;;7.47;4.93;;;18.60;99.90;;;;;;5072372;28;20023;-86
2021/08/14 21:38:08;;;;;;;6.32;4.45;;;18.60;99.90;;;;;;5073612;28;20028;-86
2021/08/14 21:40:38;;;;;;;6.85;4.68;;;18.50;99.90;;;;;;5071784;28;20115;-86
2021/08/14 21:43:04;;;;;;;7.50;5.15;;;18.50;99.90;;;;;;5073818;28;20037;-86
2021/08/14 21:45:33;;;;;;;7.55;5.20;;;18.50;99.90;;;;;;5072626;28;20033;-85
2021/08/14 21:48:01;;;;;;;7.20;4.60;;;18.40;99.90;;;;;;5073820;28;20036;-88
2021/08/14 21:50:28;;;;;;;7.80;5.38;;;18.40;99.90;;;;;;5071285;28;20036;-88
2021/08/14 21:52:54;;;;;;;8.23;5.13;;;18.30;99.90;;;;;;5072452;28;20423;-86
2021/08/14 21:55:21;;;;;;;7.43;5.00;;;18.20;99.90;;;;;;5071915;28;20025;-86
2021/08/14 21:57:47;;;;;;;8.68;5.05;;;18.20;99.90;;;;;;5072469;28;20058;-85
2021/08/14 22:00:35;;;;;;;7.30;5.22;;;18.10;99.90;;;;;;5072516;28;20028;-86
2021/08/14 22:03:03;;;;;;;6.90;5.13;;;18.00;99.90;;;;;;5073585;28;20086;-85
2021/08/14 22:05:30;;;;;;;6.57;4.53;;;18.00;99.90;;;;;;5072147;28;20561;-87
2021/08/14 22:07:56;;;;;;;7.63;5.32;;;17.90;99.90;;;;;;5072353;28;20085;-86
2021/08/14 22:10:23;;;;;;;6.32;4.45;;;17.90;99.90;;;;;;5072955;28;20043;-86
2021/08/14 22:12:49;;;;;;;6.72;4.80;;;17.90;99.90;;;;;;5073222;28;20055;-88
2021/08/14 22:15:16;;;;;;;6.88;4.68;;;17.90;99.90;;;;;;5073957;28;20028;-87
2021/08/14 22:17:44;;;;;;;7.45;5.03;;;17.90;99.90;;;;;;5072602;28;20031;-87
2021/08/14 22:20:15;;;;;;;7.32;4.78;;;17.90;99.90;;;;;;5073875;28;20092;-87
2021/08/14 22:22:47;;;;;;;7.53;4.88;;;17.90;99.90;;;;;;5073735;28;20055;-87
2021/08/14 22:25:14;;;;;;;7.45;5.05;;;17.80;99.90;;;;;;5074879;28;20109;-87
2021/08/14 22:27:43;;;;;;;7.82;4.90;;;17.80;99.90;;;;;;5074526;28;20020;-86
2021/08/14 22:30:15;;;;;;;7.22;5.45;;;17.80;99.90;;;;;;5056817;28;20033;-86
2021/08/14 22:32:42;;;;;;;6.97;4.93;;;17.80;99.90;;;;;;5073497;28;20029;-86
2021/08/14 22:35:10;;;;;;;9.23;5.47;;;17.80;99.90;;;;;;5074489;28;20024;-87
2021/08/14 22:38:12;;;;;;;8.40;5.80;;;17.70;99.90;;;;;;5073450;28;20415;-87
2021/08/14 22:40:43;;;;;;;8.68;5.20;;;17.70;99.90;;;;;;5073084;28;20028;-86
2021/08/14 22:43:13;;;;;;;9.10;5.70;;;17.70;99.90;;;;;;5073335;28;20068;-87
2021/08/14 22:45:40;;;;;;;8.18;5.93;;;17.60;99.90;;;;;;5072378;28;20054;-86
2021/08/14 22:48:08;;;;;;;8.82;6.35;;;17.50;99.90;;;;;;5073299;28;20024;-87
2021/08/14 22:50:39;;;;;;;8.80;5.72;;;17.50;99.90;;;;;;5073069;28;20082;-86
2021/08/14 22:53:07;;;;;;;6.97;5.15;;;17.40;99.90;;;;;;5072822;28;20484;-87
2021/08/14 22:55:35;;;;;;;7.65;5.43;;;17.40;99.90;;;;;;5074504;28;20020;-86
2021/08/14 22:58:01;;;;;;;7.53;5.07;;;17.50;99.90;;;;;;5055563;28;20051;-85
2021/08/14 23:00:30;;;;;;;7.95;5.40;;;17.50;99.90;;;;;;5073132;28;20039;-86
2021/08/14 23:03:01;;;;;;;7.75;4.88;;;17.50;99.90;;;;;;5055523;28;20056;-86
2021/08/14 23:05:27;;;;;;;8.90;5.43;;;17.50;99.90;;;;;;5055942;28;20472;-86
2021/08/14 23:07:55;;;;;;;8.82;5.43;;;17.50;99.90;;;;;;5055557;28;20029;-87
2021/08/14 23:10:28;;;;;;;7.78;5.28;;;17.40;99.90;;;;;;5072017;28;20039;-86
2021/08/14 23:12:55;;;;;;;7.65;5.40;;;17.40;99.90;;;;;;5072407;28;20035;-86
2021/08/14 23:15:26;;;;;;;8.40;5.45;;;17.40;99.90;;;;;;5072857;28;20047;-85
2021/08/14 23:17:53;;;;;;;8.57;5.65;;;17.40;99.90;;;;;;5072826;28;20028;-86
2021/08/14 23:20:23;;;;;;;8.13;5.50;;;17.40;99.90;;;;;;5039443;28;20037;-86
2021/08/14 23:22:52;;;;;;;8.35;5.80;;;17.30;99.90;;;;;;5072315;28;20032;-86
2021/08/14 23:25:24;;;;;;;7.47;5.20;;;17.30;99.90;;;;;;5055671;28;20036;-86
2021/08/14 23:27:52;;;;;;;8.02;5.55;;;17.30;99.90;;;;;;5072707;28;20120;-86
2021/08/14 23:30:19;;;;;;;7.88;5.20;;;17.30;99.90;;;;;;5073496;28;20468;-86
2021/08/14 23:32:51;;;;;;;9.02;5.60;;;17.30;99.90;;;;;;5056021;28;20044;-85
2021/08/14 23:35:29;;;;;;;7.35;5.07;;;17.30;99.90;;;;;;5072306;28;20024;-86
2021/08/14 23:37:58;;;;;;;9.30;5.60;;;17.30;99.90;;;;;;5073854;28;20031;-86
2021/08/14 23:40:25;;;;;;;9.45;5.88;;;17.30;99.90;;;;;;5055930;28;20036;-86
2021/08/14 23:42:51;;;;;;;8.35;5.85;;;17.30;99.90;;;;;;5055740;28;20024;-85
2021/08/14 23:45:19;;;;;;;7.25;5.32;;;17.20;99.90;;;;;;5072339;28;20024;-86
2021/08/14 23:47:45;;;;;;;8.63;5.72;;;17.20;99.90;;;;;;5055622;28;20064;-86
2021/08/14 23:50:13;;;;;;;9.02;5.50;;;17.30;99.90;;;;;;5073613;28;20028;-86
2021/08/14 23:52:40;;;;;;;7.45;4.97;;;17.30;99.90;;;;;;5073263;28;20039;-84
2021/08/14 23:55:07;;;;;;;8.20;4.88;;;17.50;99.90;;;;;;5072429;28;20035;-87
2021/08/14 23:57:33;;;;;;;7.15;4.82;;;17.50;99.90;;;;;;5071989;28;20021;-84
